Orofino, ID (83544)

12:15 PM PST on January 20, 2017 (GMT -0800)
MD3277 | | Change Station

Elev 1046 ft 46.48 °N, 116.27 °W | Updated 17 seconds ago

Partly Cloudy
Partly Cloudy
36.0 °F
Feels Like 36 °F
N
1.0
Wind Variable Wind from SE

Today
High -- | Low -- °F
--% Chance of Precip.
Yesterday
High -- | Low -- °F
Precip. -- in
Pressure 29.31 in
Visibility 10.0 miles
Clouds Clear
Windchill 36 °F
Dew Point 35 °F
Humidity 95%
Rainfall 0.01 in
Snow Depth Not available.
7:20 AM 4:32 PM
Last Quarter, 41% visible
METAR KLWS 201956Z 10013KT 10SM CLR 06/M01 A2928 RMK AO2 SLP923 T00561006 PNO $
Pressure 29.31 in
Visibility 10.0 miles
Clouds Clear
Windchill 36 °F
Dew Point 35 °F
Humidity 95%
Rainfall 0.01 in
Snow Depth Not available.
7:20 AM 4:32 PM
Last Quarter, 41% visible
METAR KLWS 201956Z 10013KT 10SM CLR 06/M01 A2928 RMK AO2 SLP923 T00561006 PNO $

Get Your Daily Forecast Email!

Thanks for signing up!

Be on the lookout for a verification email in your inbox.

You'll start receiving the daily forecast at 8 AM.

×

10-Day Weather Forecast

Almanac

Astronomy

Jan. 20, 2017 Rise Set
Actual Time
Civil Twilight
Nautical Twilight
Astronomical Twilight
Moon
Length of Visible Light
Length of Day
Tomorrow will be .
, % of the Moon is Illuminated

Today's Extremes

State Highs State Lows

Community

WunderPhotos

Upload Photos

1,962,540 photos uploaded!

WunderBlog® & News

Nearby

Air Quality

  Air Quality AQ Index Pollutant
Not available.

Snow Depth

Station Depth Elevation

Earthquake Activity

City Distance Mag. Time & Date
Minimum magnitude displayed is 2.5.

Coastal Water Temperatures

Place Temperature

Stations

Nearby Weather Stations

Station Location Temp. Windchill Dew Point Humidity Wind Precip. Elev Updated Type
                   

Watches & Warnings

There are currently no watches in effect.